Allendale, Indiana
Current Conditions -  °F | °C
As of 2:53 AM on Friday 28 Nov 2014 (Local Time) from KHUF Reporting Station
Broken Clouds Broken Clouds  
Wind Chill: 12°   Ceiling: 12000
Heat Index: 20°   Visibility: 10mi
Dew Point: 15°   Wind: 6mph
Humidity: 81%   Direction: 260°W
Pressure: 30.42"   Gusts: NA
Location:  39.3587°N, 87.4056°W
Report Text: KHUF 280753Z 26005KT 10SM BKN120 M07/M09 A3042 RMK AO2 SLP310 T10671094
Loading
Personal Weather Stations






























Interactive Weather Map New forecast layout! Learn more

10-Day Weather Forecast

Advertisements
Track Severe Weather on mobile